createdAt,value
2023-04-01T00:00:50.936Z,100126.97
2023-04-01T00:03:18.577Z,100126.97
2023-04-01T00:05:46.953Z,100120.28
2023-04-01T00:08:15.422Z,100111.31
2023-04-01T00:10:42.830Z,100123.88
2023-04-01T00:13:10.360Z,100123.00
2023-04-01T00:15:38.287Z,100118.00
2023-04-01T00:18:06.294Z,100100.63
2023-04-01T00:20:34.298Z,100107.53
2023-04-01T00:23:02.314Z,100110.25
2023-04-01T00:25:29.957Z,100120.94
2023-04-01T00:27:58.236Z,100106.28
2023-04-01T00:30:25.823Z,100111.31
2023-04-01T00:32:54.852Z,100113.19
2023-04-01T00:35:23.436Z,100117.56
2023-04-01T00:37:51.853Z,100112.13
2023-04-01T00:40:33.886Z,100108.34
2023-04-01T00:43:02.177Z,100114.44
2023-04-01T00:45:39.144Z,100113.81
2023-04-01T00:48:11.965Z,100115.50
2023-04-01T00:50:44.020Z,100121.34
2023-04-01T00:53:11.981Z,100118.63
2023-04-01T00:55:44.960Z,100114.44
2023-04-01T00:58:18.005Z,100114.88
2023-04-01T01:00:48.414Z,100117.56
2023-04-01T01:03:16.144Z,100111.13
2023-04-01T01:05:54.402Z,100118.81
2023-04-01T01:08:45.703Z,100119.88
2023-04-01T01:11:18.067Z,100117.59
2023-04-01T01:14:02.298Z,100122.00
2023-04-01T01:16:42.318Z,100125.13
2023-04-01T01:19:38.759Z,100111.97
2023-04-01T01:22:24.631Z,100111.72
2023-04-01T01:25:21.471Z,100105.03
2023-04-01T01:28:15.827Z,100114.47
2023-04-01T01:30:47.082Z,100109.44
2023-04-01T01:33:40.937Z,100106.66
2023-04-01T01:36:13.905Z,100102.91
2023-04-01T01:38:41.536Z,100106.03
2023-04-01T01:41:10.991Z,100111.22
2023-04-01T01:43:43.194Z,100103.75
2023-04-01T01:46:18.992Z,100093.53
2023-04-01T01:48:48.595Z,100097.28
2023-04-01T01:51:16.567Z,100094.78
2023-04-01T01:53:44.534Z,100099.16
2023-04-01T01:56:16.725Z,100097.69
2023-04-01T01:59:01.251Z,100095.00
2023-04-01T02:01:32.605Z,100094.38
2023-04-01T02:04:09.378Z,100096.22
2023-04-01T02:06:43.805Z,100089.75
2023-04-01T02:09:12.902Z,100094.09
2023-04-01T02:12:02.206Z,100103.72
2023-04-01T02:14:48.632Z,100101.00
2023-04-01T02:17:23.070Z,100107.03
2023-04-01T02:19:57.261Z,100105.22
2023-04-01T02:22:42.978Z,100101.44
2023-04-01T02:25:16.146Z,100108.56
2023-04-01T02:27:45.930Z,100103.34
2023-04-01T02:30:14.996Z,100106.66
2023-04-01T02:32:43.908Z,100108.53
2023-04-01T02:35:14.215Z,100104.81
2023-04-01T02:37:43.567Z,100108.34
2023-04-01T02:40:15.728Z,100108.56
2023-04-01T02:42:43.376Z,100107.97
2023-04-01T02:45:11.774Z,100115.47
2023-04-01T02:47:39.757Z,100111.72
2023-04-01T02:50:08.975Z,100111.09
2023-04-01T02:52:36.583Z,100123.41
2023-04-01T02:55:05.627Z,100125.28
2023-04-01T02:57:33.460Z,100132.75
2023-04-01T03:00:01.094Z,100131.34
2023-04-01T03:02:29.111Z,100135.91
2023-04-01T03:04:56.670Z,100131.53
2023-04-01T03:07:24.830Z,100138.81
2023-04-01T03:09:52.286Z,100133.41
2023-04-01T03:12:19.700Z,100133.16
2023-04-01T03:14:51.885Z,100137.53
2023-04-01T03:17:19.146Z,100139.81
2023-04-01T03:19:47.045Z,100148.59
2023-04-01T03:22:15.627Z,100144.00
2023-04-01T03:24:44.087Z,100146.72
2023-04-01T03:27:11.982Z,100147.31
2023-04-01T03:29:39.864Z,100151.00
2023-04-01T03:32:07.592Z,100149.09
2023-04-01T03:34:35.564Z,100148.47
2023-04-01T03:37:03.650Z,100138.25
2023-04-01T03:39:32.769Z,100141.84
2023-04-01T03:42:00.875Z,100146.59
2023-04-01T03:44:32.789Z,100148.34
2023-04-01T03:47:01.555Z,100156.47
2023-04-01T03:49:29.588Z,100149.97
2023-04-01T03:51:57.434Z,100150.09
2023-04-01T03:54:25.518Z,100151.19
2023-04-01T03:56:53.047Z,100148.66
2023-04-01T03:59:21.606Z,100145.97
2023-04-01T04:01:49.424Z,100149.03
2023-04-01T04:04:17.228Z,100146.47
2023-04-01T04:06:44.659Z,100146.06
2023-04-01T04:09:12.238Z,100155.81
2023-04-01T04:11:40.361Z,100155.63
2023-04-01T04:14:08.282Z,100150.13
2023-04-01T04:16:37.728Z,100150.13
2023-04-01T04:19:05.934Z,100157.44
2023-04-01T04:21:33.513Z,100151.78
2023-04-01T04:24:02.679Z,100150.94
2023-04-01T04:26:44.137Z,100155.72
2023-04-01T04:29:12.097Z,100166.16
2023-04-01T04:31:39.632Z,100162.91
2023-04-01T04:34:07.934Z,100159.16
2023-04-01T04:36:36.754Z,100168.84
2023-04-01T04:39:04.346Z,100178.16
2023-04-01T04:41:35.371Z,100182.50
2023-04-01T04:44:05.876Z,100179.00
2023-04-01T04:46:33.799Z,100193.28
2023-04-01T04:49:11.121Z,100197.47
2023-04-01T04:51:39.192Z,100195.56
2023-04-01T04:54:07.928Z,100201.53
2023-04-01T04:56:55.377Z,100208.78
2023-04-01T04:59:24.394Z,100194.31
2023-04-01T05:02:09.009Z,100184.75
2023-04-01T05:04:37.577Z,100200.94
2023-04-01T05:07:06.639Z,100191.69
2023-04-01T05:09:34.923Z,100195.03
2023-04-01T05:12:04.410Z,100200.97
2023-04-01T05:14:49.047Z,100194.44
2023-04-01T05:17:17.477Z,100200.25
2023-04-01T05:19:44.887Z,100210.59
2023-04-01T05:22:12.943Z,100214.94
2023-04-01T05:24:41.604Z,100218.78
2023-04-01T05:27:09.758Z,100225.22
2023-04-01T05:29:40.809Z,100224.63
2023-04-01T05:32:13.916Z,100211.59
2023-04-01T05:34:41.667Z,100207.09
2023-04-01T05:37:10.604Z,100205.75
2023-04-01T05:39:39.756Z,100205.72
2023-04-01T05:42:08.764Z,100215.97
2023-04-01T05:44:37.620Z,100217.34
2023-04-01T05:47:25.726Z,100228.78
2023-04-01T05:49:53.166Z,100241.22
2023-04-01T05:52:21.138Z,100246.38
2023-04-01T05:54:48.930Z,100245.22
2023-04-01T05:57:16.422Z,100244.22
2023-04-01T05:59:44.690Z,100232.97
2023-04-01T06:02:12.698Z,100239.22
2023-04-01T06:04:41.885Z,100242.16
2023-04-01T06:07:13.701Z,100230.63
2023-04-01T06:09:41.312Z,100239.13
2023-04-01T06:12:08.778Z,100244.31
2023-04-01T06:15:14.522Z,100238.56
2023-04-01T06:18:03.484Z,100249.34
2023-04-01T06:20:57.726Z,100249.34
2023-04-01T06:23:35.475Z,100257.75
2023-04-01T06:26:19.409Z,100246.13
2023-04-01T06:29:31.326Z,100243.38
2023-04-01T06:32:17.503Z,100237.53
2023-04-01T06:35:17.046Z,100240.50
2023-04-01T06:38:01.155Z,100236.09
2023-04-01T06:40:57.702Z,100234.66
2023-04-01T06:43:47.017Z,100242.59
2023-04-01T06:46:40.808Z,100239.09
2023-04-01T06:49:27.235Z,100241.59
2023-04-01T06:52:27.923Z,100234.03
2023-04-01T06:55:28.565Z,100236.34
2023-04-01T06:58:27.108Z,100231.78
2023-04-01T07:00:59.931Z,100241.59
2023-04-01T07:03:42.459Z,100248.09
2023-04-01T07:06:17.574Z,100239.31
2023-04-01T07:08:54.862Z,100239.25
2023-04-01T07:11:30.646Z,100234.41
2023-04-01T07:14:33.070Z,100234.25
2023-04-01T07:17:21.802Z,100234.63
2023-04-01T07:20:04.855Z,100226.09
2023-04-01T07:22:32.282Z,100226.88
2023-04-01T07:25:18.148Z,100231.94
2023-04-01T07:27:58.270Z,100228.28
2023-04-01T07:30:31.402Z,100219.91
2023-04-01T07:33:10.164Z,100225.53
2023-04-01T07:35:50.789Z,100224.88
2023-04-01T07:38:27.245Z,100234.66
2023-04-01T07:41:04.611Z,100243.19
2023-04-01T07:43:57.339Z,100243.72
2023-04-01T07:46:47.771Z,100252.69
2023-04-01T07:49:27.160Z,100259.13
2023-04-01T07:52:05.861Z,100257.47
2023-04-01T07:54:36.646Z,100251.59
2023-04-01T07:57:13.631Z,100251.59
2023-04-01T08:00:02.890Z,100254.50
2023-04-01T08:03:26.020Z,100252.91
2023-04-01T08:05:58.876Z,100250.06
2023-04-01T08:08:41.944Z,100246.09
2023-04-01T08:12:10.693Z,100253.16
2023-04-01T08:15:47.052Z,100256.75
2023-04-01T08:18:51.435Z,100246.22
2023-04-01T08:21:26.196Z,100243.78
2023-04-01T08:24:12.728Z,100225.34
2023-04-01T08:26:49.394Z,100229.69
2023-04-01T08:29:21.984Z,100222.53
2023-04-01T08:31:59.643Z,100215.06
2023-04-01T08:34:35.234Z,100223.78
2023-04-01T08:37:12.063Z,100216.59
2023-04-01T08:39:49.091Z,100221.03
2023-04-01T08:42:42.789Z,100225.44
2023-04-01T08:45:41.359Z,100227.38
2023-04-01T08:48:09.963Z,100227.47
2023-04-01T08:51:06.427Z,100225.81
2023-04-01T08:54:16.096Z,100235.38
2023-04-01T08:57:09.882Z,100228.63
2023-04-01T09:00:36.491Z,100229.44
2023-04-01T09:04:02.660Z,100232.56
2023-04-01T09:06:48.526Z,100233.16
2023-04-01T09:09:27.992Z,100242.44
2023-04-01T09:12:26.267Z,100237.91
2023-04-01T09:15:08.822Z,100259.09
2023-04-01T09:18:07.917Z,100232.00
2023-04-01T09:20:58.916Z,100246.63
2023-04-01T09:23:54.531Z,100243.06
2023-04-01T09:26:49.838Z,100238.66
2023-04-01T09:29:31.703Z,100251.53
2023-04-01T09:32:17.377Z,100242.13
2023-04-01T09:35:24.905Z,100237.09
2023-04-01T09:38:18.809Z,100242.63
2023-04-01T09:40:55.373Z,100231.59
2023-04-01T09:44:13.582Z,100238.59
2023-04-01T09:47:11.020Z,100238.34
2023-04-01T09:49:50.608Z,100230.97
2023-04-01T09:52:45.331Z,100224.16
2023-04-01T09:55:42.108Z,100233.31
2023-04-01T09:58:31.483Z,100223.50
2023-04-01T10:01:17.465Z,100235.50
2023-04-01T10:04:03.844Z,100227.75
2023-04-01T10:06:56.162Z,100225.75
2023-04-01T10:09:42.386Z,100218.84
2023-04-01T10:12:17.622Z,100224.06
2023-04-01T10:15:42.520Z,100222.97
2023-04-01T10:18:38.733Z,100219.91
2023-04-01T10:21:24.019Z,100220.75
2023-04-01T10:24:25.855Z,100220.22
2023-04-01T10:27:23.801Z,100207.31
2023-04-01T10:30:46.663Z,100194.09
2023-04-01T10:33:25.104Z,100197.34
2023-04-01T10:35:56.126Z,100190.50
2023-04-01T10:39:02.403Z,100189.13
2023-04-01T10:41:55.373Z,100193.75
2023-04-01T10:45:22.753Z,100189.78
2023-04-01T10:48:11.878Z,100192.16
2023-04-01T10:51:07.305Z,100195.06
2023-04-01T10:53:44.117Z,100184.91
2023-04-01T10:56:49.420Z,100175.19
2023-04-01T10:59:57.296Z,100181.69
2023-04-01T11:03:18.447Z,100168.94
2023-04-01T11:06:30.397Z,100175.09
2023-04-01T11:09:21.263Z,100169.13
2023-04-01T11:12:11.873Z,100165.88
2023-04-01T11:15:08.613Z,100171.00
2023-04-01T11:18:03.034Z,100168.66
2023-04-01T11:21:05.122Z,100175.03
2023-04-01T11:24:03.889Z,100172.75
2023-04-01T11:26:51.869Z,100173.53
2023-04-01T11:30:38.773Z,100172.47
2023-04-01T11:33:13.317Z,100170.88
2023-04-01T11:36:20.403Z,100166.25
2023-04-01T11:39:07.239Z,100167.41
2023-04-01T11:42:18.849Z,100159.25
2023-04-01T11:45:39.694Z,100161.94
2023-04-01T11:48:26.327Z,100149.97
2023-04-01T11:51:32.394Z,100148.03
2023-04-01T11:54:41.782Z,100162.34
2023-04-01T11:57:44.256Z,100144.91
2023-04-01T12:00:43.779Z,100141.97
2023-04-01T12:03:41.591Z,100152.31
2023-04-01T12:06:27.071Z,100138.31
2023-04-01T12:09:13.023Z,100136.50
2023-04-01T12:12:04.772Z,100129.06
2023-04-01T12:14:40.764Z,100135.34
2023-04-01T12:17:33.207Z,100136.19
2023-04-01T12:20:12.688Z,100129.00
2023-04-01T12:23:04.845Z,100121.31
2023-04-01T12:26:00.621Z,100130.16
2023-04-01T12:28:56.747Z,100127.28
2023-04-01T12:31:42.363Z,100118.22
2023-04-01T12:34:25.772Z,100120.63
2023-04-01T12:37:17.153Z,100122.53
2023-04-01T12:39:56.391Z,100126.19
2023-04-01T12:42:51.871Z,100119.88
2023-04-01T12:45:33.566Z,100113.34
2023-04-01T12:48:19.638Z,100113.97
2023-04-01T12:50:59.297Z,100099.56
2023-04-01T12:53:41.373Z,100091.31
2023-04-01T12:56:23.890Z,100097.72
2023-04-01T12:59:09.834Z,100094.44
2023-04-01T13:01:57.386Z,100084.63
2023-04-01T13:04:46.653Z,100081.00
2023-04-01T13:07:23.135Z,100085.72
2023-04-01T13:10:29.738Z,100083.97
2023-04-01T13:13:04.095Z,100076.94
2023-04-01T13:15:37.526Z,100073.84
2023-04-01T13:18:08.059Z,100061.78
2023-04-01T13:21:03.295Z,100060.59
2023-04-01T13:23:54.671Z,100053.28
2023-04-01T13:26:58.095Z,100055.00
2023-04-01T13:29:33.306Z,100054.88
2023-04-01T13:35:40.115Z,100052.69
2023-04-01T13:38:36.299Z,100042.34
2023-04-01T13:41:16.424Z,100038.66
2023-04-01T13:43:51.328Z,100035.88
2023-04-01T13:46:42.722Z,100040.97
2023-04-01T13:49:59.643Z,100048.38
2023-04-01T13:53:05.000Z,100046.34
2023-04-01T13:55:55.566Z,100034.44
2023-04-01T13:58:51.063Z,100039.72
2023-04-01T14:01:39.979Z,100027.84
2023-04-01T14:04:25.991Z,100029.91
2023-04-01T14:07:14.402Z,100019.59
2023-04-01T14:10:18.558Z,100026.38
2023-04-01T14:13:02.841Z,100022.41
2023-04-01T14:15:41.205Z,100022.50
2023-04-01T14:18:39.484Z,99998.47
2023-04-01T14:21:50.540Z,99937.41
2023-04-01T14:24:37.162Z,99931.63
2023-04-01T14:27:20.535Z,99962.31
2023-04-01T14:29:59.108Z,99956.59
2023-04-01T14:32:39.913Z,99964.03
2023-04-01T14:35:13.795Z,99977.16
2023-04-01T14:38:06.108Z,99968.75
2023-04-01T14:40:56.824Z,99965.56
2023-04-01T14:44:06.780Z,99971.44
2023-04-01T14:46:51.416Z,99969.25
2023-04-01T14:49:38.597Z,99979.09
2023-04-01T14:52:16.103Z,99972.38
2023-04-01T14:54:48.803Z,99964.28
2023-04-01T14:57:25.263Z,99964.00
2023-04-01T15:00:00.386Z,99964.28
2023-04-01T15:03:00.109Z,99961.38
2023-04-01T15:05:40.418Z,99962.06
2023-04-01T15:08:18.900Z,99961.50
2023-04-01T15:11:02.148Z,99953.25
2023-04-01T15:13:38.869Z,99957.78
2023-04-01T15:16:11.922Z,99952.19
2023-04-01T15:18:59.559Z,99954.81
2023-04-01T15:21:42.106Z,99951.41
2023-04-01T15:24:36.942Z,99950.47
2023-04-01T15:27:31.810Z,99943.34
2023-04-01T15:30:18.762Z,99935.91
2023-04-01T15:33:02.092Z,99933.94
2023-04-01T15:35:33.113Z,99937.53
2023-04-01T15:38:08.140Z,99930.50
2023-04-01T15:41:17.046Z,99929.63
2023-04-01T15:43:53.332Z,99934.97
2023-04-01T15:46:33.008Z,99928.22
2023-04-01T15:49:00.629Z,99932.00
2023-04-01T15:51:34.023Z,99927.28
2023-04-01T15:54:38.709Z,99933.53
2023-04-01T15:57:29.657Z,99933.38
2023-04-01T16:00:18.495Z,99930.88
2023-04-01T16:02:54.722Z,99932.44
2023-04-01T16:05:27.003Z,99927.97
2023-04-01T16:08:31.781Z,99926.25
2023-04-01T16:11:13.380Z,99920.06
2023-04-01T16:13:56.152Z,99922.00
2023-04-01T16:16:52.429Z,99917.38
2023-04-01T16:19:30.269Z,99921.72
2023-04-01T16:22:09.978Z,99928.28
2023-04-01T16:24:54.999Z,99914.78
2023-04-01T16:27:34.909Z,99929.94
2023-04-01T16:30:26.805Z,99916.91
2023-04-01T16:33:21.556Z,99904.41
2023-04-01T16:35:57.825Z,99905.09
2023-04-01T16:38:44.740Z,99902.63
2023-04-01T16:41:37.971Z,99904.38
2023-04-01T16:44:20.538Z,99900.56
2023-04-01T16:47:08.625Z,99899.72
2023-04-01T16:49:47.627Z,99905.97
2023-04-01T16:52:23.862Z,99901.97
2023-04-01T16:55:18.470Z,99907.03
2023-04-01T16:57:57.465Z,99906.19
2023-04-01T17:00:25.425Z,99904.72
2023-04-01T17:03:19.558Z,99911.03
2023-04-01T17:06:05.657Z,99916.41
2023-04-01T17:08:57.234Z,99904.09
2023-04-01T17:11:56.625Z,99913.03
2023-04-01T17:14:33.621Z,99919.19
2023-04-01T17:17:08.611Z,99921.28
2023-04-01T17:19:48.598Z,99918.91
2023-04-01T17:22:38.564Z,99919.91
2023-04-01T17:25:18.124Z,99918.09
2023-04-01T17:28:35.920Z,99922.19
2023-04-01T17:31:38.907Z,99929.53
2023-04-01T17:34:14.210Z,99928.34
2023-04-01T17:37:04.082Z,99932.91
2023-04-01T17:39:46.426Z,99939.94
2023-04-01T17:42:14.265Z,99935.25
2023-04-01T17:45:12.962Z,99938.31
2023-04-01T17:47:43.300Z,99940.53
2023-04-01T17:50:19.759Z,99939.13
2023-04-01T17:52:57.657Z,99943.56
2023-04-01T17:55:58.019Z,99946.84
2023-04-01T17:58:28.868Z,99946.31
2023-04-01T18:01:17.697Z,99950.19
2023-04-01T18:03:54.398Z,99948.22
2023-04-01T18:06:24.646Z,99940.28
2023-04-01T18:09:15.788Z,99940.88
2023-04-01T18:12:01.170Z,99952.44
2023-04-01T18:14:37.485Z,99953.38
2023-04-01T18:17:07.847Z,99958.88
2023-04-01T18:19:57.574Z,99967.16
2023-04-01T18:22:35.317Z,99958.03
2023-04-01T18:25:08.654Z,99961.97
2023-04-01T18:27:46.674Z,99968.34
2023-04-01T18:30:33.981Z,99965.78
2023-04-01T18:33:11.172Z,99960.97
2023-04-01T18:35:53.856Z,99957.63
2023-04-01T18:38:30.843Z,99965.41
2023-04-01T18:41:24.089Z,99964.94
2023-04-01T18:44:20.405Z,99964.41
2023-04-01T18:47:25.828Z,99974.63
2023-04-01T18:50:03.339Z,99969.16
2023-04-01T18:52:52.926Z,99971.03
2023-04-01T18:55:31.860Z,99971.38
2023-04-01T18:58:15.695Z,99973.81
2023-04-01T19:00:51.598Z,99973.53
2023-04-01T19:03:19.559Z,99979.53
2023-04-01T19:05:50.749Z,99983.31
2023-04-01T19:08:21.445Z,99978.19
2023-04-01T19:11:10.278Z,99978.53
2023-04-01T19:13:51.130Z,99990.63
2023-04-01T19:16:18.646Z,99983.31
2023-04-01T19:19:16.706Z,99989.00
2023-04-01T19:22:00.530Z,99994.31
2023-04-01T19:24:54.811Z,99996.75
2023-04-01T19:27:37.451Z,99982.28
2023-04-01T19:30:30.339Z,99988.50
2023-04-01T19:33:16.833Z,99984.59
2023-04-01T19:35:59.472Z,99996.16
2023-04-01T19:38:40.679Z,100000.75
2023-04-01T19:41:33.340Z,99997.31
2023-04-01T19:44:19.482Z,100003.25
2023-04-01T19:46:54.607Z,100001.41
2023-04-01T19:49:48.803Z,100008.03
2023-04-01T19:52:29.578Z,100004.75
2023-04-01T19:55:27.174Z,100010.06
2023-04-01T19:58:06.782Z,100017.13
2023-04-01T20:00:42.216Z,100019.88
2023-04-01T20:03:33.927Z,100015.72
2023-04-01T20:06:38.620Z,100022.94
2023-04-01T20:09:08.989Z,100020.13
2023-04-01T20:11:56.792Z,100019.28
2023-04-01T20:14:42.472Z,100019.53
2023-04-01T20:17:20.442Z,100025.13
2023-04-01T20:20:00.230Z,100027.06
2023-04-01T20:22:52.243Z,100023.69
2023-04-01T20:25:23.005Z,100031.00
2023-04-01T20:28:02.861Z,100026.69
2023-04-01T20:31:07.456Z,100031.94
2023-04-01T20:34:12.948Z,100033.81
2023-04-01T20:37:18.770Z,100032.34
2023-04-01T20:39:46.829Z,100037.03
2023-04-01T20:42:52.143Z,100033.56
2023-04-01T20:46:08.981Z,100038.31
2023-04-01T20:48:53.350Z,100038.22
2023-04-01T20:51:27.662Z,100044.88
2023-04-01T20:54:45.434Z,100043.69
2023-04-01T20:57:24.071Z,100035.13
2023-04-01T21:00:24.681Z,100041.56
2023-04-01T21:03:30.862Z,100042.59
2023-04-01T21:06:16.650Z,100044.63
2023-04-01T21:09:22.626Z,100045.97
2023-04-01T21:12:14.340Z,100049.63
2023-04-01T21:15:13.418Z,100047.28
2023-04-01T21:17:47.350Z,100052.59
2023-04-01T21:20:27.397Z,100050.25
2023-04-01T21:23:17.571Z,100051.41
2023-04-01T21:26:03.342Z,100059.88
2023-04-01T21:28:41.852Z,100060.81
2023-04-01T21:31:24.571Z,100061.91
2023-04-01T21:34:09.027Z,100064.63
2023-04-01T21:36:40.725Z,100065.06
2023-04-01T21:39:19.793Z,100074.72
2023-04-01T21:42:11.961Z,100069.47
2023-04-01T21:44:49.263Z,100062.69
2023-04-01T21:47:22.868Z,100079.25
2023-04-01T21:50:08.928Z,100082.34
2023-04-01T21:52:40.104Z,100080.56
2023-04-01T21:55:32.901Z,100094.22
2023-04-01T21:58:06.633Z,100091.25
2023-04-01T22:00:43.882Z,100097.22
2023-04-01T22:03:27.429Z,100088.97
2023-04-01T22:06:17.370Z,100096.03
2023-04-01T22:09:19.559Z,100093.59
2023-04-01T22:11:55.252Z,100090.75
2023-04-01T22:14:36.184Z,100101.34
2023-04-01T22:17:38.494Z,100096.50
2023-04-01T22:20:28.043Z,100106.56
2023-04-01T22:23:34.152Z,100096.66
2023-04-01T22:26:11.440Z,100100.28
2023-04-01T22:28:48.338Z,100100.56
2023-04-01T22:31:22.982Z,100107.94
2023-04-01T22:34:41.558Z,100102.03
2023-04-01T22:37:20.948Z,100115.44
2023-04-01T22:39:51.703Z,100112.84
2023-04-01T22:42:49.341Z,100111.41
2023-04-01T22:45:44.508Z,100113.69
2023-04-01T22:48:17.499Z,100114.25
2023-04-01T22:51:05.473Z,100112.66
2023-04-01T22:53:56.034Z,100113.22
2023-04-01T22:56:29.948Z,100114.63
2023-04-01T22:59:06.606Z,100105.34
2023-04-01T23:01:40.646Z,100107.34
2023-04-01T23:04:13.468Z,100101.06
2023-04-01T23:06:48.210Z,100102.50
2023-04-01T23:09:31.121Z,100103.44
2023-04-01T23:12:01.604Z,100107.81
2023-04-01T23:14:38.613Z,100105.06
2023-04-01T23:17:23.742Z,100111.81
2023-04-01T23:19:57.293Z,100106.31
2023-04-01T23:22:34.223Z,100099.84
2023-04-01T23:25:20.883Z,100112.13
2023-04-01T23:28:00.941Z,100116.16
2023-04-01T23:30:40.475Z,100111.44
2023-04-01T23:33:10.818Z,100122.25
2023-04-01T23:36:06.092Z,100121.13
2023-04-01T23:38:42.834Z,100123.56
2023-04-01T23:41:21.538Z,100122.03
2023-04-01T23:43:59.695Z,100119.97
2023-04-01T23:46:28.341Z,100123.59
2023-04-01T23:48:56.318Z,100134.06
2023-04-01T23:51:28.629Z,100132.19
2023-04-01T23:54:11.409Z,100126.91
2023-04-01T23:56:49.506Z,100130.41
2023-04-01T23:59:33.480Z,100132.16
